.
WxDataArchive / Data Records for 2011-04-11
2011-04-10 April 2011 2011-04-12

Data Records for Monday, 11 April 2011

Time	Temp	Chill	HIndex	Humid	Dewpt	 Wind 	HiWind	WindDir	Rain 	Barom 
-----	----	-----	------	-----	-----	------	------	-------	-----	----- 
00:00	74.6	74.6	74.6	62	60.7	3	11	248	0.00	29.577 
00:05	74.6	74.6	74.6	62	60.7	5	12	248	0.00	29.577 
00:10	74.6	74.6	74.6	62	60.7	5	11	248	0.00	29.577 
00:15	74.6	74.6	74.6	62	60.7	5	12	248	0.00	29.568 
00:20	74.6	74.6	74.6	62	60.7	5	12	248	0.00	29.568 
00:25	74.4	74.4	74.4	62	60.5	4	12	248	0.00	29.568 
00:30	74.2	74.2	74.2	63	60.8	4	10	248	0.00	29.568 
00:35	74.2	74.2	74.2	63	60.8	4	9	248	0.00	29.568 
00:40	74.2	74.2	74.2	63	60.8	3	9	248	0.00	29.568 
00:45	74.0	74.0	74.0	63	60.6	4	12	248	0.00	29.563 
00:50	73.9	73.9	73.9	64	60.9	3	7	248	0.00	29.563 
00:55	73.7	73.7	73.7	64	60.7	4	10	248	0.00	29.563 
01:00	73.7	73.7	73.7	64	60.7	4	12	248	0.00	29.552 
01:05	73.9	73.9	73.9	64	60.9	4	10	248	0.00	29.552 
01:10	73.9	73.9	73.9	64	60.9	4	11	248	0.00	29.552 
01:15	73.7	73.7	73.7	64	60.7	3	9	248	0.00	29.551 
01:20	73.7	73.7	73.7	64	60.7	4	11	248	0.00	29.551 
01:25	73.7	73.7	73.7	65	61.2	3	9	248	0.00	29.551 
01:30	73.7	73.7	73.7	64	60.7	3	7	248	0.00	29.549 
01:35	73.7	73.7	73.7	64	60.7	2	4	248	0.00	29.549 
01:40	73.5	73.5	73.5	65	61.0	3	10	248	0.00	29.549 
01:45	73.3	73.3	73.3	65	60.8	2	7	248	0.00	29.541 
01:50	73.2	73.2	73.2	65	60.7	2	7	248	0.00	29.541 
01:55	73.2	73.2	73.2	65	60.7	3	7	248	0.00	29.541 
02:00	73.5	73.5	73.5	65	61.0	3	10	248	0.00	29.547 
02:05	73.3	73.3	73.3	65	60.8	2	6	248	0.00	29.547 
02:10	73.2	73.2	73.2	65	60.7	2	6	248	0.00	29.547 
02:15	73.2	73.2	73.2	65	60.7	2	6	225	0.00	29.549 
02:20	73.0	73.0	73.0	66	61.0	3	7	248	0.00	29.549 
02:25	73.0	73.0	73.0	65	60.5	3	9	248	0.00	29.549 
02:30	73.0	73.0	73.0	66	61.0	2	7	248	0.00	29.548 
02:35	73.2	73.2	73.2	65	60.7	4	10	248	0.00	29.548 
02:40	73.3	73.3	73.3	65	60.8	3	7	248	0.00	29.548 
02:45	73.3	73.3	73.3	65	60.8	2	5	248	0.00	29.545 
02:50	73.2	73.2	73.2	65	60.7	3	6	248	0.00	29.545 
02:55	73.2	73.2	73.2	66	61.1	3	7	248	0.00	29.545 
03:00	73.2	73.2	73.2	66	61.1	2	6	248	0.00	29.544 
03:05	73.2	73.2	73.2	66	61.1	3	6	248	0.00	29.544 
03:10	73.2	73.2	73.2	66	61.1	4	10	248	0.00	29.544 
03:15	73.3	73.3	73.3	66	61.2	3	10	270	0.00	29.548 
03:20	73.3	73.3	73.3	66	61.2	3	8	248	0.00	29.548 
03:25	73.3	73.3	73.3	66	61.2	2	5	248	0.00	29.548 
03:30	73.3	73.3	73.3	66	61.2	2	5	248	0.00	29.548 
03:35	73.3	73.3	73.3	66	61.2	2	6	248	0.00	29.548 
03:40	73.2	73.2	73.2	66	61.1	2	9	248	0.00	29.548 
03:45	73.2	73.2	73.2	66	61.1	3	7	248	0.00	29.543 
03:50	73.2	73.2	73.2	66	61.1	3	5	248	0.00	29.543 
03:55	73.0	73.0	73.0	67	61.4	2	7	248	0.00	29.543 
04:00	73.0	73.0	73.0	67	61.4	2	6	248	0.00	29.540 
04:05	73.0	73.0	73.0	67	61.4	2	7	248	0.00	29.540 
04:10	73.0	73.0	73.0	67	61.4	3	7	248	0.00	29.540 
04:15	72.8	72.8	72.8	67	61.2	2	4	248	0.00	29.538 
04:20	72.8	72.8	72.8	67	61.2	2	4	270	0.00	29.538 
04:25	72.7	72.7	72.7	67	61.1	4	9	270	0.00	29.538 
04:30	72.0	72.0	72.0	68	60.8	5	12	270	0.00	29.580 
04:35	70.9	70.9	70.9	69	60.2	5	9	270	0.00	29.580 
04:40	69.8	69.8	69.8	71	60.0	6	10	270	0.00	29.580 
04:45	67.8	67.8	67.8	78	60.7	5	13	270	0.02	29.582 
04:50	66.1	66.1	66.1	84	61.1	3	9	248	0.02	29.582 
04:55	65.3	65.3	65.3	87	61.3	3	7	270	0.00	29.582 
05:00	64.8	64.8	64.8	88	61.2	2	5	248	0.00	29.571 
05:05	64.5	64.5	64.5	90	61.5	3	6	248	0.00	29.571 
05:10	64.3	64.3	64.3	91	61.6	2	5	248	0.00	29.571 
05:15	64.3	64.3	64.3	91	61.6	3	6	248	0.01	29.588 
05:20	64.2	64.2	64.2	92	61.8	3	7	248	0.00	29.588 
05:25	64.2	64.2	64.2	92	61.8	2	6	248	0.01	29.588 
05:30	64.0	64.0	64.0	92	61.6	2	6	248	0.01	29.590 
05:35	64.0	64.0	64.0	92	61.6	3	9	270	0.00	29.590 
05:40	63.9	63.9	63.9	92	61.5	3	9	248	0.00	29.590 
05:45	63.7	63.7	63.7	92	61.3	3	6	248	0.00	29.603 
05:50	63.5	63.5	63.5	92	61.1	3	7	248	0.01	29.603 
05:55	63.5	63.5	63.5	92	61.1	3	7	248	0.00	29.603 
06:00	63.4	63.4	63.4	92	61.0	4	10	248	0.00	29.611 
06:05	63.2	63.2	63.2	93	61.1	3	10	248	0.02	29.611 
06:10	63.1	63.1	63.1	93	61.0	2	5	248	0.01	29.611 
06:15	62.9	62.9	62.9	93	60.8	1	4	248	0.01	29.573 
06:20	62.7	62.7	62.7	93	60.6	1	3	248	0.01	29.573 
06:25	62.6	62.6	62.6	93	60.5	1	3	248	0.00	29.573 
06:30	62.6	62.6	62.6	93	60.5	0	3	225	0.00	29.551 
06:35	62.4	62.4	62.4	93	60.3	1	3	225	0.00	29.551 
06:40	62.4	62.4	62.4	93	60.3	1	3	112	0.00	29.551 
06:45	62.3	62.3	62.3	94	60.5	1	3	112	0.01	29.495 
06:50	62.3	62.3	62.3	94	60.5	0	3	112	0.00	29.495 
06:55	62.1	62.1	62.1	94	60.3	0	2	112	0.00	29.495 
07:00	62.1	62.1	62.1	94	60.3	1	4	248	0.00	29.529 
07:05	62.1	62.1	62.1	94	60.3	2	6	248	0.00	29.529 
07:10	62.1	62.1	62.1	94	60.3	2	5	248	0.00	29.529 
07:15	62.1	62.1	62.1	94	60.3	3	7	248	0.00	29.580 
07:20	62.1	62.1	62.1	94	60.3	1	4	248	0.00	29.580 
07:25	62.1	62.1	62.1	95	60.6	4	9	248	0.00	29.580 
07:30	62.1	62.1	62.1	94	60.3	2	7	248	0.00	29.578 
07:35	62.0	62.0	62.0	94	60.2	3	9	248	0.00	29.578 
07:40	62.0	62.0	62.0	95	60.5	3	6	248	0.00	29.578 
07:45	62.0	62.0	62.0	95	60.5	2	6	248	0.00	29.598 
07:50	62.0	62.0	62.0	94	60.2	3	5	270	0.00	29.598 
07:55	61.8	61.8	61.8	94	60.1	2	7	248	0.00	29.598 
08:00	61.6	61.6	61.6	94	59.9	4	9	248	0.00	29.610 
08:05	61.6	61.6	61.6	94	59.9	3	10	248	0.00	29.610 
08:10	61.5	61.5	61.5	94	59.8	4	10	248	0.00	29.610 
08:15	61.5	61.5	61.5	93	59.5	3	7	248	0.00	29.632 
08:20	61.2	61.2	61.2	93	59.2	4	10	248	0.00	29.632 
08:25	60.9	60.9	60.9	92	58.6	3	9	248	0.00	29.632 
08:30	60.7	60.7	60.7	91	58.1	4	10	270	0.00	29.613 
08:35	60.5	60.5	60.5	89	57.2	3	8	248	0.00	29.613 
08:40	60.5	60.5	60.5	89	57.2	2	4	248	0.00	29.613 
08:45	60.5	60.5	60.5	88	56.9	3	6	248	0.00	29.610 
08:50	60.5	60.5	60.5	88	56.9	2	9	225	0.00	29.610 
08:55	60.4	60.4	60.4	88	56.8	4	10	90	0.00	29.610 
09:00	60.5	60.5	60.5	88	56.9	3	7	270	0.00	29.631 
09:05	60.5	60.5	60.5	88	56.9	2	6	248	0.00	29.631 
09:10	60.5	60.5	60.5	87	56.6	2	5	248	0.00	29.631 
09:15	60.5	60.5	60.5	87	56.6	3	6	248	0.00	29.612 
09:20	60.7	60.7	60.7	87	56.8	2	6	248	0.00	29.612 
09:25	61.0	61.0	61.0	86	56.8	2	10	248	0.00	29.612 
09:30	61.0	61.0	61.0	86	56.8	3	6	248	0.00	29.603 
09:35	61.0	61.0	61.0	87	57.1	2	5	248	0.00	29.603 
09:40	61.0	61.0	61.0	87	57.1	2	5	248	0.00	29.603 
09:45	61.0	61.0	61.0	88	57.4	2	6	248	0.00	29.599 
09:50	61.0	61.0	61.0	88	57.4	1	4	248	0.00	29.599 
09:55	61.0	61.0	61.0	88	57.4	2	4	248	0.00	29.599 
10:00	61.0	61.0	61.0	89	57.7	3	5	248	0.00	29.620 
10:05	61.0	61.0	61.0	89	57.7	2	7	248	0.00	29.620 
10:10	61.0	61.0	61.0	89	57.7	2	5	248	0.00	29.620 
10:15	61.0	61.0	61.0	88	57.4	2	7	248	0.00	29.598 
10:20	61.2	61.2	61.2	84	56.3	3	7	248	0.00	29.598 
10:25	61.3	61.3	61.3	83	56.1	3	8	270	0.00	29.598 
10:30	61.5	61.5	61.5	83	56.3	3	9	225	0.00	29.620 
10:35	61.5	61.5	61.5	82	55.9	2	7	248	0.00	29.620 
10:40	61.6	61.6	61.6	81	55.7	4	7	248	0.00	29.620 
10:45	61.6	61.6	61.6	80	55.4	4	9	248	0.00	29.613 
10:50	61.6	61.6	61.6	81	55.7	3	7	248	0.00	29.613 
10:55	61.6	61.6	61.6	81	55.7	2	6	248	0.00	29.613 
11:00	61.5	61.5	61.5	80	55.3	5	11	248	0.00	29.642 
11:05	61.3	61.3	61.3	77	54.0	5	12	248	0.00	29.642 
11:10	61.3	61.3	61.3	77	54.0	4	12	270	0.00	29.642 
11:15	61.2	61.2	61.2	77	53.9	4	11	270	0.00	29.645 
11:20	61.2	61.2	61.2	78	54.3	3	6	248	0.00	29.645 
11:25	61.2	61.2	61.2	78	54.3	3	6	248	0.00	29.645 
11:30	61.2	61.2	61.2	79	54.6	3	7	248	0.00	29.649 
11:35	61.2	61.2	61.2	79	54.6	2	6	248	0.00	29.649 
11:40	61.3	61.3	61.3	79	54.7	3	7	248	0.00	29.649 
11:45	61.5	61.5	61.5	78	54.6	3	7	248	0.00	29.645 
11:50	61.5	61.5	61.5	79	54.9	3	7	248	0.00	29.645 
11:55	61.3	61.3	61.3	79	54.7	4	6	270	0.00	29.645 
12:00	61.0	61.0	61.0	77	53.7	4	10	270	0.00	29.642 
12:05	60.9	60.9	60.9	77	53.6	4	6	270	0.00	29.642 
12:10	60.7	60.7	60.7	77	53.4	3	6	270	0.00	29.642 
12:15	60.5	60.5	60.5	77	53.2	3	6	270	0.00	29.641 
12:20	60.5	60.5	60.5	76	52.9	3	5	270	0.00	29.641 
12:25	60.5	60.5	60.5	76	52.9	4	10	248	0.00	29.641 
12:30	60.4	60.4	60.4	75	52.4	3	6	248	0.00	29.660 
12:35	60.4	60.4	60.4	76	52.8	3	6	248	0.00	29.660 
12:40	60.2	60.2	60.2	73	51.5	5	7	270	0.00	29.660 
12:45	60.1	60.1	60.1	72	51.0	5	10	270	0.00	29.664 
12:50	60.1	60.1	60.1	73	51.4	4	11	248	0.00	29.664 
12:55	60.1	60.1	60.1	72	51.0	4	7	270	0.00	29.664 
13:00	60.4	60.4	60.4	73	51.7	3	5	248	0.00	29.663 
13:05	60.4	60.4	60.4	68	49.8	4	8	248	0.00	29.663 
13:10	60.2	60.2	60.2	67	49.2	4	7	292	0.00	29.663 
13:15	60.4	60.4	60.4	66	49.0	4	7	248	0.00	29.650 
13:20	60.7	60.7	60.7	64	48.4	3	6	248	0.00	29.650 
13:25	60.7	60.7	60.7	63	48.0	4	7	270	0.00	29.650 
13:30	60.7	60.7	60.7	63	48.0	4	8	270	0.00	29.662 
13:35	60.9	60.9	60.9	65	49.1	2	4	270	0.00	29.662 
13:40	60.9	60.9	60.9	62	47.8	4	9	270	0.00	29.662 
13:45	60.5	60.5	60.5	64	48.3	4	7	270	0.00	29.673 
13:50	60.5	60.5	60.5	63	47.8	4	7	270	0.00	29.673 
13:55	60.5	60.5	60.5	65	48.7	3	7	248	0.00	29.673 
14:00	60.5	60.5	60.5	64	48.3	3	6	248	0.00	29.655 
14:05	60.7	60.7	60.7	65	48.9	3	5	248	0.00	29.655 
14:10	60.7	60.7	60.7	66	49.3	3	7	270	0.00	29.655 
14:15	60.7	60.7	60.7	63	48.0	4	9	270	0.00	29.663 
14:20	60.9	60.9	60.9	62	47.8	4	9	270	0.00	29.663 
14:25	60.9	60.9	60.9	62	47.8	4	6	270	0.00	29.663 
14:30	60.9	60.9	60.9	62	47.8	3	5	248	0.00	29.694 
14:35	61.0	61.0	61.0	64	48.7	3	6	292	0.00	29.694 
14:40	60.9	60.9	60.9	65	49.1	4	9	270	0.00	29.694 
14:45	61.3	61.3	61.3	67	50.2	3	8	248	0.00	29.695 
14:50	61.8	61.8	61.8	64	49.5	4	9	270	0.00	29.695 
14:55	61.3	61.3	61.3	63	48.6	4	6	270	0.00	29.695 
15:00	61.3	61.3	61.3	64	49.0	2	4	270	0.00	29.687 
15:05	61.0	61.0	61.0	64	48.7	3	6	270	0.00	29.687 
15:10	60.9	60.9	60.9	65	49.1	3	5	292	0.00	29.687 
15:15	60.9	60.9	60.9	65	49.1	4	7	270	0.00	29.686 
15:20	61.3	61.3	61.3	64	49.0	4	7	270	0.00	29.686 
15:25	61.5	61.5	61.5	64	49.2	3	6	270	0.00	29.686 
15:30	61.8	61.8	61.8	64	49.5	3	5	270	0.00	29.676 
15:35	61.8	61.8	61.8	64	49.5	3	7	315	0.00	29.676 
15:40	61.8	61.8	61.8	62	48.6	3	9	292	0.00	29.676 
15:45	62.0	62.0	62.0	62	48.8	3	6	270	0.00	29.662 
15:50	61.6	61.6	61.6	64	49.3	3	10	270	0.00	29.662 
15:55	61.3	61.3	61.3	63	48.6	2	6	315	0.00	29.662 
16:00	60.5	60.5	60.5	63	47.8	2	7	292	0.00	29.665 
16:05	60.1	60.1	60.1	64	47.9	3	6	270	0.00	29.665 
16:10	59.8	59.8	59.8	64	47.6	2	5	338	0.00	29.665 
16:15	59.6	59.6	59.6	66	48.2	1	5	292	0.00	29.686 
16:20	59.8	59.8	59.8	65	48.0	1	3	315	0.00	29.686 
16:25	60.1	60.1	60.1	62	47.0	2	6	338	0.00	29.686 
16:30	60.4	60.4	60.4	62	47.3	2	7	338	0.00	29.686 
16:35	60.7	60.7	60.7	62	47.6	2	4	248	0.00	29.686 
16:40	61.2	61.2	61.2	61	47.6	2	5	248	0.00	29.686 
16:45	61.8	61.8	61.8	59	47.3	3	6	270	0.00	29.688 
16:50	62.0	62.0	62.0	59	47.5	2	4	315	0.00	29.688 
16:55	61.5	61.5	61.5	60	47.5	1	5	292	0.00	29.688 
17:00	61.2	61.2	61.2	60	47.2	2	4	248	0.00	29.696 
17:05	60.9	60.9	60.9	59	46.5	2	5	315	0.00	29.696 
17:10	60.9	60.9	60.9	59	46.5	2	4	315	0.00	29.696 
17:15	60.7	60.7	60.7	59	46.3	3	4	270	0.00	29.706 
17:20	60.5	60.5	60.5	60	46.5	2	6	270	0.00	29.706 
17:25	60.7	60.7	60.7	60	46.7	1	4	270	0.00	29.706 
17:30	60.4	60.4	60.4	59	46.0	1	4	338	0.00	29.706 
17:35	60.2	60.2	60.2	59	45.8	1	5	338	0.00	29.706 
17:40	60.4	60.4	60.4	60	46.4	2	4	315	0.00	29.706 
17:45	60.4	60.4	60.4	59	46.0	1	4	338	0.00	29.703 
17:50	60.7	60.7	60.7	60	46.7	1	4	338	0.00	29.703 
17:55	61.2	61.2	61.2	59	46.8	1	3	338	0.00	29.703 
18:00	61.0	61.0	61.0	57	45.7	2	5	338	0.00	29.715 
18:05	60.2	60.2	60.2	58	45.4	2	6	338	0.00	29.715 
18:10	59.9	59.9	59.9	59	45.5	2	6	315	0.00	29.715 
18:15	59.8	59.8	59.8	59	45.4	2	5	0	0.00	29.719 
18:20	59.6	59.6	59.6	59	45.3	1	3	292	0.00	29.719 
18:25	59.6	59.6	59.6	59	45.3	3	5	248	0.00	29.719 
18:30	59.6	59.6	59.6	58	44.8	1	3	338	0.00	29.736 
18:35	59.6	59.6	59.6	57	44.3	2	6	270	0.00	29.736 
18:40	59.5	59.5	59.5	57	44.3	2	5	315	0.00	29.736 
18:45	59.5	59.5	59.5	57	44.3	1	4	292	0.00	29.737 
18:50	59.5	59.5	59.5	58	44.7	1	3	292	0.00	29.737 
18:55	59.2	59.2	59.2	58	44.4	2	4	270	0.00	29.737 
19:00	58.9	58.9	58.9	58	44.1	1	3	292	0.00	29.747 
19:05	58.7	58.7	58.7	58	44.0	1	3	315	0.00	29.747 
19:10	58.6	58.6	58.6	59	44.3	0	3	315	0.00	29.747 
19:15	58.4	58.4	58.4	58	43.7	2	5	315	0.00	29.750 
19:20	58.3	58.3	58.3	59	44.0	0	2	315	0.00	29.750 
19:25	58.3	58.3	58.3	59	44.0	1	4	315	0.00	29.750 
19:30	58.1	58.1	58.1	59	43.8	1	3	270	0.00	29.750 
19:35	58.0	58.0	58.0	59	43.8	1	3	292	0.00	29.750 
19:40	58.0	58.0	58.0	59	43.8	1	5	292	0.00	29.750 
19:45	57.8	57.8	57.8	60	44.0	1	3	270	0.00	29.755 
19:50	57.6	57.6	57.6	60	43.8	2	4	292	0.00	29.755 
19:55	57.5	57.5	57.5	60	43.7	1	3	315	0.00	29.755 
20:00	57.5	57.5	57.5	60	43.7	2	4	0	0.00	29.755 
20:05	57.3	57.3	57.3	60	43.5	1	4	0	0.00	29.755 
20:10	57.2	57.2	57.2	61	43.9	1	3	338	0.00	29.755 
20:15	57.0	57.0	57.0	61	43.7	0	3	270	0.00	29.769 
20:20	57.0	57.0	57.0	61	43.7	1	3	315	0.00	29.769 
20:25	57.0	57.0	57.0	61	43.7	1	3	315	0.00	29.769 
20:30	57.0	57.0	57.0	61	43.7	0	4	315	0.00	29.777 
20:35	57.0	57.0	57.0	60	43.3	1	5	270	0.00	29.777 
20:40	56.9	56.9	56.9	60	43.2	1	3	315	0.00	29.777 
20:45	56.9	56.9	56.9	60	43.2	1	3	0	0.00	29.776 
20:50	56.6	56.6	56.6	59	42.4	1	4	270	0.00	29.776 
20:55	56.5	56.5	56.5	59	42.3	2	5	315	0.00	29.776 
21:00	56.3	56.3	56.3	59	42.2	1	3	338	0.00	29.786 
21:05	56.3	56.3	56.3	59	42.2	1	2	338	0.00	29.786 
21:10	56.2	56.2	56.2	58	41.6	2	6	338	0.00	29.786 
21:15	55.9	55.9	55.9	58	41.3	1	7	270	0.00	29.801 
21:20	55.7	55.7	55.7	59	41.6	1	3	315	0.00	29.801 
21:25	55.3	55.3	55.3	59	41.2	1	2	315	0.00	29.801 
21:30	55.1	55.1	55.1	60	41.5	0	2	315	0.00	29.804 
21:35	54.8	54.8	54.8	60	41.2	0	5	292	0.00	29.804 
21:40	54.7	54.7	54.7	60	41.1	1	3	315	0.00	29.804 
21:45	54.5	54.5	54.5	61	41.3	0	1	315	0.00	29.806 
21:50	54.2	54.2	54.2	62	41.5	0	1	315	0.00	29.806 
21:55	53.9	53.9	53.9	62	41.2	0	1	315	0.00	29.806 
22:00	53.5	53.5	53.5	63	41.2	0	1	315	0.00	29.805 
22:05	53.2	53.2	53.2	63	40.9	0	0	---	0.00	29.805 
22:10	52.9	52.9	52.9	64	41.1	0	0	---	0.00	29.805 
22:15	52.6	52.6	52.6	65	41.2	0	0	---	0.00	29.806 
22:20	52.3	52.3	52.3	65	40.9	0	0	---	0.00	29.806 
22:25	52.0	52.0	52.0	66	41.0	0	1	315	0.00	29.806 
22:30	51.7	51.7	51.7	67	41.1	0	0	---	0.00	29.810 
22:35	51.6	51.6	51.6	67	41.0	0	1	315	0.00	29.810 
22:40	51.6	51.6	51.6	68	41.4	0	1	315	0.00	29.810 
22:45	51.7	51.7	51.7	68	41.5	0	2	315	0.00	29.809 
22:50	51.6	51.6	51.6	68	41.4	0	0	---	0.00	29.809 
22:55	51.4	51.4	51.4	68	41.2	0	0	---	0.00	29.809 
23:00	51.3	51.3	51.3	68	41.1	0	1	315	0.00	29.813 
23:05	51.1	51.1	51.1	69	41.3	0	0	---	0.00	29.813 
23:10	50.8	50.8	50.8	69	41.0	0	1	315	0.00	29.813 
23:15	50.7	50.7	50.7	69	40.9	0	0	---	0.00	29.815 
23:20	50.5	50.5	50.5	69	40.7	0	1	315	0.00	29.815 
23:25	50.2	50.2	50.2	70	40.8	0	0	---	0.00	29.815 
23:30	49.9	49.9	49.9	70	40.5	0	0	---	0.00	29.808 
23:35	49.9	49.9	49.9	71	40.9	0	2	315	0.00	29.808 
23:40	49.9	49.9	49.9	71	40.9	0	1	315	0.00	29.808 
23:45	49.9	49.9	49.9	71	40.9	0	1	315	0.00	29.824 
23:50	49.8	49.8	49.8	71	40.8	0	2	315	0.00	29.824 
23:55	49.9	49.9	49.9	70	40.5	0	2	0	0.00	29.824 

CoCoRaHS
IN-AL-39
A2 Web Hosting
Creative Commons License
GoDaddy
search engine by freefind advanced

loaded 2018-11-12 19:09:52 • last modified 2010-11-18 10:43:29
Privacy PolicyDisclaimer
• wx.awcolley.com is powered by PmWiki v.2002016 •
• all content (unless otherwise noted) © 2018 A W Colley